createdAt,value
2024-03-30T00:00:02.357Z,10.54
2024-03-30T00:01:02.065Z,10.54
2024-03-30T00:02:02.064Z,10.54
2024-03-30T00:03:01.984Z,10.49
2024-03-30T00:04:01.961Z,10.56
2024-03-30T00:05:02.188Z,10.54
2024-03-30T00:06:01.883Z,10.54
2024-03-30T00:07:01.848Z,10.53
2024-03-30T00:08:01.818Z,10.38
2024-03-30T00:09:01.793Z,10.40
2024-03-30T00:10:02.025Z,10.48
2024-03-30T00:11:01.723Z,10.51
2024-03-30T00:12:01.731Z,10.51
2024-03-30T00:13:01.649Z,10.54
2024-03-30T00:14:01.905Z,10.54
2024-03-30T00:15:01.586Z,10.54
2024-03-30T00:16:01.550Z,10.56
2024-03-30T00:17:01.520Z,10.57
2024-03-30T00:18:01.511Z,10.57
2024-03-30T00:19:01.727Z,10.53
2024-03-30T00:20:01.422Z,10.51
2024-03-30T00:21:01.384Z,10.64
2024-03-30T00:22:01.351Z,10.61
2024-03-30T00:23:01.319Z,10.63
2024-03-30T00:24:01.592Z,10.67
2024-03-30T00:25:01.260Z,10.60
2024-03-30T00:26:01.222Z,10.68
2024-03-30T00:27:01.188Z,10.68
2024-03-30T00:28:01.150Z,10.67
2024-03-30T00:29:01.403Z,10.67
2024-03-30T00:30:01.095Z,10.68
2024-03-30T00:31:01.070Z,10.67
2024-03-30T00:32:01.025Z,10.64
2024-03-30T00:33:00.990Z,10.71
2024-03-30T00:34:01.242Z,10.64
2024-03-30T00:35:00.920Z,10.63
2024-03-30T00:36:00.888Z,10.60
2024-03-30T00:37:00.850Z,10.68
2024-03-30T00:38:00.839Z,10.48
2024-03-30T00:39:01.079Z,10.54
2024-03-30T00:40:00.770Z,10.60
2024-03-30T00:41:00.722Z,10.57
2024-03-30T00:42:00.696Z,10.63
2024-03-30T00:43:05.534Z,10.57
2024-03-30T00:44:00.885Z,10.56
2024-03-30T00:45:00.585Z,10.48
2024-03-30T00:46:00.597Z,10.44
2024-03-30T00:47:00.565Z,10.44
2024-03-30T00:48:00.546Z,10.31
2024-03-30T00:49:00.845Z,10.33
2024-03-30T00:50:00.421Z,10.15
2024-03-30T00:51:00.384Z,10.22
2024-03-30T00:52:00.352Z,10.17
2024-03-30T00:53:00.321Z,10.07
2024-03-30T00:54:00.570Z,10.12
2024-03-30T00:55:00.253Z,10.02
2024-03-30T00:56:00.215Z,10.04
2024-03-30T00:57:00.198Z,10.02
2024-03-30T00:58:00.173Z,10.01
2024-03-30T00:59:00.395Z,10.01
2024-03-30T01:00:00.125Z,9.99
2024-03-30T01:01:00.054Z,9.94
2024-03-30T01:02:00.037Z,9.91
2024-03-30T01:02:59.985Z,9.95
2024-03-30T01:04:00.229Z,9.91
2024-03-30T01:04:59.913Z,9.86
2024-03-30T01:05:59.885Z,9.86
2024-03-30T01:06:59.863Z,9.73
2024-03-30T01:07:59.832Z,9.74
2024-03-30T01:08:59.830Z,9.62
2024-03-30T01:09:59.747Z,9.61
2024-03-30T01:10:59.712Z,9.64
2024-03-30T01:11:59.679Z,9.72
2024-03-30T01:12:59.687Z,9.50
2024-03-30T01:13:59.624Z,9.56
2024-03-30T01:14:59.862Z,9.55
2024-03-30T01:15:59.552Z,9.50
2024-03-30T01:16:59.526Z,9.56
2024-03-30T01:17:59.490Z,9.46
2024-03-30T01:18:59.446Z,9.51
2024-03-30T01:19:59.706Z,9.37
2024-03-30T01:21:01.732Z,9.36
2024-03-30T01:21:59.346Z,9.29
2024-03-30T01:22:59.313Z,9.29
2024-03-30T01:23:59.287Z,9.21
2024-03-30T01:24:59.516Z,9.21
2024-03-30T01:25:59.208Z,9.23
2024-03-30T01:26:59.174Z,9.26
2024-03-30T01:27:59.156Z,9.16
2024-03-30T01:28:59.106Z,9.22
2024-03-30T01:29:59.415Z,9.11
2024-03-30T01:30:59.037Z,9.16
2024-03-30T01:31:59.007Z,9.21
2024-03-30T01:32:58.967Z,9.21
2024-03-30T01:33:58.936Z,9.21
2024-03-30T01:34:59.234Z,9.21
2024-03-30T01:35:58.870Z,9.25
2024-03-30T01:36:58.834Z,9.23
2024-03-30T01:37:58.799Z,9.36
2024-03-30T01:38:58.763Z,9.41
2024-03-30T01:39:59.015Z,9.37
2024-03-30T01:40:58.702Z,9.39
2024-03-30T01:41:58.666Z,9.40
2024-03-30T01:42:58.629Z,9.46
2024-03-30T01:43:58.672Z,9.44
2024-03-30T01:44:58.834Z,9.40
2024-03-30T01:45:58.526Z,9.40
2024-03-30T01:46:58.501Z,9.44
2024-03-30T01:47:58.462Z,9.44
2024-03-30T01:48:58.435Z,9.43
2024-03-30T01:49:58.669Z,9.41
2024-03-30T01:50:58.375Z,9.39
2024-03-30T01:51:58.328Z,9.37
2024-03-30T01:52:58.287Z,9.28
2024-03-30T01:53:58.252Z,9.36
2024-03-30T01:54:58.500Z,9.23
2024-03-30T01:55:58.198Z,9.21
2024-03-30T01:56:58.151Z,9.16
2024-03-30T01:57:58.118Z,9.13
2024-03-30T01:58:58.090Z,8.99
2024-03-30T01:59:58.076Z,9.04
2024-03-30T02:00:58.014Z,9.02
2024-03-30T02:01:58.002Z,8.99
2024-03-30T02:02:57.954Z,9.04
2024-03-30T02:03:57.916Z,8.95
2024-03-30T02:04:58.150Z,8.94
2024-03-30T02:05:57.843Z,9.00
2024-03-30T02:06:57.808Z,8.97
2024-03-30T02:07:57.777Z,8.94
2024-03-30T02:08:57.737Z,9.02
2024-03-30T02:09:57.991Z,8.97
2024-03-30T02:10:57.699Z,9.02
2024-03-30T02:11:57.642Z,8.97
2024-03-30T02:12:57.605Z,8.97
2024-03-30T02:13:57.848Z,8.97
2024-03-30T02:14:57.548Z,8.95
2024-03-30T02:15:57.506Z,8.89
2024-03-30T02:16:57.471Z,8.94
2024-03-30T02:17:57.591Z,8.97
2024-03-30T02:18:57.671Z,8.95
2024-03-30T02:19:57.417Z,8.99
2024-03-30T02:20:57.350Z,8.94
2024-03-30T02:21:57.341Z,9.03
2024-03-30T02:22:57.263Z,9.14
2024-03-30T02:23:57.238Z,9.21
2024-03-30T02:24:57.474Z,9.26
2024-03-30T02:25:57.164Z,9.16
2024-03-30T02:26:57.135Z,9.21
2024-03-30T02:27:57.092Z,9.21
2024-03-30T02:28:57.084Z,9.14
2024-03-30T02:29:57.294Z,9.21
2024-03-30T02:30:56.996Z,9.28
2024-03-30T02:31:56.956Z,9.26
2024-03-30T02:32:56.940Z,9.25
2024-03-30T02:33:57.163Z,9.28
2024-03-30T02:34:56.856Z,9.21
2024-03-30T02:35:56.838Z,9.21
2024-03-30T02:36:56.799Z,9.28
2024-03-30T02:37:56.751Z,9.32
2024-03-30T02:38:56.993Z,9.37
2024-03-30T02:39:56.717Z,9.25
2024-03-30T02:40:56.647Z,9.29
2024-03-30T02:41:56.614Z,9.19
2024-03-30T02:42:56.579Z,9.25
2024-03-30T02:43:56.828Z,9.18
2024-03-30T02:44:56.540Z,9.19
2024-03-30T02:45:56.506Z,9.21
2024-03-30T02:46:56.442Z,9.14
2024-03-30T02:47:56.440Z,8.94
2024-03-30T02:48:56.646Z,9.03
2024-03-30T02:49:56.340Z,9.02
2024-03-30T02:50:56.323Z,8.99
2024-03-30T02:51:56.275Z,8.99
2024-03-30T02:52:56.238Z,9.02
2024-03-30T02:53:56.486Z,8.97
2024-03-30T02:54:56.173Z,8.88
2024-03-30T02:55:56.138Z,8.91
2024-03-30T02:56:56.109Z,8.92
2024-03-30T02:57:56.063Z,9.02
2024-03-30T02:58:56.308Z,8.91
2024-03-30T02:59:56.056Z,8.88
2024-03-30T03:00:55.957Z,8.95
2024-03-30T03:01:55.932Z,8.91
2024-03-30T03:02:55.916Z,8.89
2024-03-30T03:03:56.130Z,8.92
2024-03-30T03:04:55.824Z,8.97
2024-03-30T03:05:55.833Z,8.89
2024-03-30T03:06:55.753Z,8.94
2024-03-30T03:07:55.722Z,8.88
2024-03-30T03:08:56.003Z,8.89
2024-03-30T03:09:55.650Z,8.87
2024-03-30T03:10:55.617Z,8.88
2024-03-30T03:11:55.617Z,8.81
2024-03-30T03:12:55.549Z,8.89
2024-03-30T03:13:55.788Z,8.91
2024-03-30T03:14:55.493Z,8.95
2024-03-30T03:15:55.448Z,9.04
2024-03-30T03:16:55.450Z,8.92
2024-03-30T03:17:55.410Z,9.02
2024-03-30T03:18:55.610Z,8.89
2024-03-30T03:19:55.307Z,8.89
2024-03-30T03:20:55.416Z,8.71
2024-03-30T03:21:55.237Z,8.71
2024-03-30T03:22:55.209Z,8.84
2024-03-30T03:23:55.497Z,8.84
2024-03-30T03:24:55.133Z,8.81
2024-03-30T03:25:55.101Z,8.87
2024-03-30T03:26:55.106Z,8.84
2024-03-30T03:27:55.030Z,8.91
2024-03-30T03:28:55.279Z,8.89
2024-03-30T03:29:54.986Z,8.94
2024-03-30T03:30:54.928Z,8.95
2024-03-30T03:31:54.892Z,8.92
2024-03-30T03:32:54.907Z,8.94
2024-03-30T03:33:55.113Z,9.03
2024-03-30T03:34:54.791Z,9.00
2024-03-30T03:35:54.776Z,9.06
2024-03-30T03:36:54.721Z,9.02
2024-03-30T03:37:54.686Z,8.97
2024-03-30T03:38:54.959Z,8.94
2024-03-30T03:39:54.618Z,8.94
2024-03-30T03:40:54.593Z,8.95
2024-03-30T03:41:54.586Z,8.95
2024-03-30T03:42:54.796Z,9.00
2024-03-30T03:43:54.480Z,8.95
2024-03-30T03:44:54.487Z,8.84
2024-03-30T03:45:54.432Z,8.87
2024-03-30T03:46:54.374Z,8.71
2024-03-30T03:47:54.413Z,8.78
2024-03-30T03:48:54.892Z,8.66
2024-03-30T03:49:54.293Z,8.67
2024-03-30T03:50:54.325Z,8.61
2024-03-30T03:51:54.220Z,8.63
2024-03-30T03:52:54.449Z,8.64
2024-03-30T03:53:54.176Z,8.67
2024-03-30T03:54:54.142Z,8.71
2024-03-30T03:55:54.084Z,8.69
2024-03-30T03:56:54.050Z,8.69
2024-03-30T03:57:54.308Z,8.61
2024-03-30T03:58:53.962Z,8.67
2024-03-30T03:59:53.937Z,8.61
2024-03-30T04:00:53.895Z,8.64
2024-03-30T04:01:53.863Z,8.60
2024-03-30T04:02:54.115Z,8.63
2024-03-30T04:03:53.793Z,8.67
2024-03-30T04:04:53.763Z,8.66
2024-03-30T04:05:53.731Z,8.71
2024-03-30T04:06:53.686Z,8.67
2024-03-30T04:07:53.933Z,8.60
2024-03-30T04:08:53.672Z,8.66
2024-03-30T04:09:53.587Z,8.60
2024-03-30T04:10:53.551Z,8.55
2024-03-30T04:11:53.536Z,8.49
2024-03-30T04:12:53.755Z,8.48
2024-03-30T04:13:53.448Z,8.51
2024-03-30T04:14:53.423Z,8.51
2024-03-30T04:15:53.376Z,8.46
2024-03-30T04:16:53.834Z,8.44
2024-03-30T04:17:53.606Z,8.34
2024-03-30T04:18:53.272Z,8.34
2024-03-30T04:19:53.247Z,8.31
2024-03-30T04:20:53.213Z,8.38
2024-03-30T04:21:53.170Z,8.52
2024-03-30T04:22:53.408Z,8.41
2024-03-30T04:23:53.103Z,8.38
2024-03-30T04:24:53.073Z,8.51
2024-03-30T04:25:53.061Z,8.42
2024-03-30T04:26:53.026Z,8.45
2024-03-30T04:27:53.235Z,8.42
2024-03-30T04:28:52.927Z,8.45
2024-03-30T04:29:52.892Z,8.52
2024-03-30T04:30:52.860Z,8.51
2024-03-30T04:31:52.824Z,8.41
2024-03-30T04:32:53.072Z,8.44
2024-03-30T04:33:52.753Z,8.53
2024-03-30T04:34:52.725Z,8.49
2024-03-30T04:35:52.720Z,8.52
2024-03-30T04:36:52.699Z,8.49
2024-03-30T04:37:52.894Z,8.53
2024-03-30T04:38:52.642Z,8.58
2024-03-30T04:39:52.607Z,8.56
2024-03-30T04:40:52.578Z,8.51
2024-03-30T04:41:52.506Z,8.52
2024-03-30T04:42:52.747Z,8.52
2024-03-30T04:43:52.415Z,8.41
2024-03-30T04:44:52.398Z,8.38
2024-03-30T04:45:52.347Z,8.45
2024-03-30T04:46:52.310Z,8.41
2024-03-30T04:47:52.646Z,8.41
2024-03-30T04:48:52.239Z,8.42
2024-03-30T04:49:52.204Z,8.42
2024-03-30T04:50:52.184Z,8.48
2024-03-30T04:51:52.139Z,8.41
2024-03-30T04:52:52.377Z,8.46
2024-03-30T04:53:52.086Z,8.41
2024-03-30T04:54:52.034Z,8.42
2024-03-30T04:55:51.998Z,8.30
2024-03-30T04:56:52.248Z,8.52
2024-03-30T04:57:51.927Z,8.48
2024-03-30T04:58:51.895Z,8.42
2024-03-30T04:59:51.866Z,8.41
2024-03-30T05:00:51.834Z,8.46
2024-03-30T05:01:51.791Z,8.51
2024-03-30T05:02:52.035Z,8.45
2024-03-30T05:03:51.723Z,8.49
2024-03-30T05:04:51.694Z,8.51
2024-03-30T05:05:51.655Z,8.66
2024-03-30T05:06:51.920Z,8.64
2024-03-30T05:07:51.613Z,8.69
2024-03-30T05:08:51.554Z,8.79
2024-03-30T05:09:51.514Z,8.74
2024-03-30T05:10:51.486Z,8.88
2024-03-30T05:11:51.726Z,8.91
2024-03-30T05:12:51.413Z,8.95
2024-03-30T05:13:51.379Z,8.99
2024-03-30T05:14:51.344Z,9.04
2024-03-30T05:15:51.311Z,9.13
2024-03-30T05:16:51.558Z,9.19
2024-03-30T05:17:51.241Z,9.23
2024-03-30T05:18:51.214Z,9.29
2024-03-30T05:19:51.174Z,9.31
2024-03-30T05:20:51.140Z,9.37
2024-03-30T05:21:51.126Z,9.43
2024-03-30T05:22:51.082Z,9.51
2024-03-30T05:23:51.036Z,9.55
2024-03-30T05:24:51.011Z,9.58
2024-03-30T05:25:50.971Z,9.51
2024-03-30T05:26:51.214Z,9.69
2024-03-30T05:27:50.910Z,9.62
2024-03-30T05:28:50.895Z,9.74
2024-03-30T05:29:50.835Z,9.69
2024-03-30T05:30:50.863Z,9.76
2024-03-30T05:31:51.047Z,9.76
2024-03-30T05:32:50.740Z,9.77
2024-03-30T05:33:51.402Z,9.74
2024-03-30T05:34:50.663Z,9.74
2024-03-30T05:35:50.634Z,9.73
2024-03-30T05:36:50.876Z,9.73
2024-03-30T05:37:50.563Z,9.74
2024-03-30T05:38:50.539Z,9.79
2024-03-30T05:39:50.497Z,9.83
2024-03-30T05:40:50.465Z,9.83
2024-03-30T05:41:50.719Z,9.80
2024-03-30T05:42:50.396Z,9.86
2024-03-30T05:43:50.359Z,9.84
2024-03-30T05:44:50.331Z,9.95
2024-03-30T05:45:50.290Z,9.94
2024-03-30T05:46:50.568Z,9.99
2024-03-30T05:47:50.231Z,10.04
2024-03-30T05:48:50.190Z,10.07
2024-03-30T05:49:50.910Z,10.15
2024-03-30T05:50:50.432Z,10.19
2024-03-30T05:51:50.093Z,10.26
2024-03-30T05:52:50.057Z,10.34
2024-03-30T05:53:50.022Z,10.41
2024-03-30T05:54:49.991Z,10.51
2024-03-30T05:55:50.228Z,10.56
2024-03-30T05:56:49.923Z,10.68
2024-03-30T05:57:49.890Z,10.68
2024-03-30T05:58:49.856Z,10.56
2024-03-30T05:59:49.829Z,10.61
2024-03-30T06:00:50.066Z,10.63
2024-03-30T06:01:49.755Z,10.51
2024-03-30T06:02:49.734Z,10.64
2024-03-30T06:03:49.691Z,10.63
2024-03-30T06:04:49.665Z,10.61
2024-03-30T06:05:49.917Z,10.68
2024-03-30T06:06:49.614Z,10.72
2024-03-30T06:07:49.584Z,10.63
2024-03-30T06:08:49.533Z,10.68
2024-03-30T06:09:49.489Z,10.64
2024-03-30T06:10:49.811Z,10.61
2024-03-30T06:11:49.439Z,10.60
2024-03-30T06:12:49.400Z,10.63
2024-03-30T06:13:49.367Z,10.63
2024-03-30T06:14:49.323Z,10.67
2024-03-30T06:15:49.583Z,10.69
2024-03-30T06:16:49.259Z,10.71
2024-03-30T06:17:49.232Z,10.74
2024-03-30T06:18:49.862Z,10.74
2024-03-30T06:19:49.158Z,10.79
2024-03-30T06:20:49.408Z,10.84
2024-03-30T06:21:49.109Z,10.86
2024-03-30T06:22:49.061Z,10.96
2024-03-30T06:23:49.101Z,10.97
2024-03-30T06:24:48.994Z,10.99
2024-03-30T06:25:49.243Z,11.15
2024-03-30T06:26:48.931Z,11.19
2024-03-30T06:27:48.901Z,11.17
2024-03-30T06:28:48.865Z,11.18
2024-03-30T06:29:48.827Z,11.40
2024-03-30T06:30:49.017Z,11.40
2024-03-30T06:31:48.762Z,11.45
2024-03-30T06:32:48.732Z,11.50
2024-03-30T06:33:48.708Z,11.51
2024-03-30T06:34:48.661Z,11.62
2024-03-30T06:35:48.629Z,11.65
2024-03-30T06:36:48.874Z,11.73
2024-03-30T06:37:48.565Z,11.63
2024-03-30T06:38:48.532Z,11.65
2024-03-30T06:39:48.833Z,11.69
2024-03-30T06:40:48.468Z,11.72
2024-03-30T06:41:48.432Z,11.69
2024-03-30T06:42:48.404Z,11.75
2024-03-30T06:43:51.504Z,11.84
2024-03-30T06:44:48.616Z,11.86
2024-03-30T06:45:48.321Z,11.99
2024-03-30T06:46:48.283Z,12.04
2024-03-30T06:47:48.238Z,12.04
2024-03-30T06:48:48.207Z,12.17
2024-03-30T06:49:48.534Z,12.07
2024-03-30T06:50:48.375Z,12.18
2024-03-30T06:51:48.113Z,12.24
2024-03-30T06:52:48.084Z,12.27
2024-03-30T06:53:48.325Z,12.35
2024-03-30T06:54:50.286Z,12.39
2024-03-30T06:55:47.974Z,12.39
2024-03-30T06:56:47.945Z,12.37
2024-03-30T06:57:47.915Z,12.46
2024-03-30T06:58:48.157Z,12.49
2024-03-30T06:59:47.848Z,12.55
2024-03-30T07:00:47.868Z,12.61
2024-03-30T07:01:47.786Z,12.60
2024-03-30T07:02:47.752Z,12.67
2024-03-30T07:03:47.791Z,12.67
2024-03-30T07:04:47.684Z,12.85
2024-03-30T07:05:47.652Z,12.85
2024-03-30T07:06:47.632Z,12.97
2024-03-30T07:07:47.872Z,13.11
2024-03-30T07:08:47.558Z,13.13
2024-03-30T07:09:47.533Z,13.30
2024-03-30T07:10:47.527Z,13.44
2024-03-30T07:11:47.483Z,13.47
2024-03-30T07:12:47.460Z,13.57
2024-03-30T07:13:47.401Z,13.71
2024-03-30T07:14:47.394Z,13.79
2024-03-30T07:15:47.370Z,13.92
2024-03-30T07:17:13.454Z,13.89
2024-03-30T07:17:47.278Z,13.97
2024-03-30T07:18:47.450Z,14.17
2024-03-30T07:19:47.213Z,14.30
2024-03-30T07:20:47.195Z,14.33
2024-03-30T07:21:47.164Z,14.35
2024-03-30T07:22:47.122Z,14.43
2024-03-30T07:23:47.088Z,14.44
2024-03-30T07:24:47.395Z,14.47
2024-03-30T07:25:47.057Z,14.43
2024-03-30T07:26:46.999Z,14.50
2024-03-30T07:27:47.240Z,14.44
2024-03-30T07:28:47.443Z,14.32
2024-03-30T07:29:50.289Z,14.35
2024-03-30T07:30:46.863Z,14.44
2024-03-30T07:31:46.849Z,14.45
2024-03-30T07:32:46.840Z,14.63
2024-03-30T07:33:46.778Z,14.78
2024-03-30T07:34:46.748Z,15.02
2024-03-30T07:35:47.380Z,15.07
2024-03-30T07:36:46.688Z,15.14
2024-03-30T07:37:46.931Z,15.14
2024-03-30T07:38:46.627Z,15.10
2024-03-30T07:39:46.599Z,15.14
2024-03-30T07:40:46.591Z,15.11
2024-03-30T07:41:51.390Z,15.15
2024-03-30T07:42:46.507Z,15.14
2024-03-30T07:43:46.534Z,15.14
2024-03-30T07:44:46.444Z,15.22
2024-03-30T07:45:46.411Z,15.24
2024-03-30T07:46:46.383Z,15.33
2024-03-30T07:47:46.633Z,15.39
2024-03-30T07:48:46.324Z,15.33
2024-03-30T07:49:46.292Z,15.42
2024-03-30T07:50:46.296Z,15.46
2024-03-30T07:51:46.233Z,15.55
2024-03-30T07:52:46.476Z,15.70
2024-03-30T07:53:46.171Z,15.72
2024-03-30T07:54:52.991Z,15.73
2024-03-30T07:55:46.137Z,15.77
2024-03-30T07:56:46.085Z,15.67
2024-03-30T07:57:46.322Z,15.58
2024-03-30T07:58:46.028Z,15.37
2024-03-30T07:59:46.011Z,15.21
2024-03-30T08:00:45.962Z,15.21
2024-03-30T08:01:45.933Z,15.24
2024-03-30T08:02:46.172Z,15.22
2024-03-30T08:03:45.872Z,15.06
2024-03-30T08:04:45.840Z,15.18
2024-03-30T08:05:45.811Z,15.17
2024-03-30T08:06:46.949Z,15.21
2024-03-30T08:07:45.752Z,15.36
2024-03-30T08:08:45.718Z,15.39
2024-03-30T08:09:45.688Z,15.42
2024-03-30T08:10:45.676Z,15.52
2024-03-30T08:11:45.632Z,15.49
2024-03-30T08:12:45.871Z,15.49
2024-03-30T08:13:45.563Z,15.55
2024-03-30T08:14:45.546Z,15.72
2024-03-30T08:15:45.520Z,15.77
2024-03-30T08:16:45.481Z,15.97
2024-03-30T08:17:45.756Z,15.90
2024-03-30T08:18:45.440Z,15.80
2024-03-30T08:19:45.438Z,15.83
2024-03-30T08:20:45.352Z,15.95
2024-03-30T08:21:47.776Z,16.12
2024-03-30T08:22:45.592Z,16.23
2024-03-30T08:23:45.263Z,16.29
2024-03-30T08:24:45.247Z,16.51
2024-03-30T08:25:45.203Z,16.56
2024-03-30T08:26:45.262Z,16.54
2024-03-30T08:27:45.160Z,16.54
2024-03-30T08:28:45.123Z,16.43
2024-03-30T08:29:45.094Z,16.47
2024-03-30T08:30:45.062Z,16.43
2024-03-30T08:31:45.291Z,16.56
2024-03-30T08:32:45.004Z,16.57
2024-03-30T08:33:44.969Z,16.51
2024-03-30T08:34:44.938Z,16.71
2024-03-30T08:35:44.917Z,16.74
2024-03-30T08:36:45.153Z,16.61
2024-03-30T08:37:44.845Z,16.51
2024-03-30T08:38:44.843Z,16.56
2024-03-30T08:39:44.789Z,16.56
2024-03-30T08:40:44.758Z,16.51
2024-03-30T08:41:44.998Z,16.58
2024-03-30T08:42:44.767Z,16.72
2024-03-30T08:43:44.675Z,16.71
2024-03-30T08:44:44.686Z,16.87
2024-03-30T08:45:44.614Z,16.86
2024-03-30T08:46:44.612Z,16.91
2024-03-30T08:47:44.553Z,17.14
2024-03-30T08:48:44.521Z,17.09
2024-03-30T08:49:44.492Z,17.09
2024-03-30T08:50:44.461Z,17.16
2024-03-30T08:51:44.744Z,17.15
2024-03-30T08:52:44.454Z,17.09
2024-03-30T08:53:44.394Z,17.14
2024-03-30T08:54:44.363Z,17.15
2024-03-30T08:55:44.324Z,17.31
2024-03-30T08:56:44.318Z,17.34
2024-03-30T08:57:44.261Z,17.27
2024-03-30T08:58:44.230Z,17.36
2024-03-30T08:59:44.199Z,17.39
2024-03-30T09:00:44.173Z,17.41
2024-03-30T09:01:44.176Z,17.41
2024-03-30T09:02:44.147Z,17.44
2024-03-30T09:03:44.083Z,17.54
2024-03-30T09:04:44.141Z,17.59
2024-03-30T09:05:44.443Z,17.67
2024-03-30T09:06:44.008Z,17.83
2024-03-30T09:07:43.967Z,17.76
2024-03-30T09:08:44.000Z,17.85
2024-03-30T09:09:43.906Z,17.80
2024-03-30T09:10:44.183Z,17.89
2024-03-30T09:11:43.846Z,17.95
2024-03-30T09:12:43.821Z,17.98
2024-03-30T09:13:43.801Z,18.01
2024-03-30T09:14:43.763Z,17.89
2024-03-30T09:15:44.005Z,18.03
2024-03-30T09:16:43.707Z,18.13
2024-03-30T09:17:43.683Z,18.07
2024-03-30T09:18:43.666Z,18.08
2024-03-30T09:19:43.617Z,18.07
2024-03-30T09:20:43.647Z,18.23
2024-03-30T09:21:43.565Z,18.26
2024-03-30T09:22:43.532Z,18.38
2024-03-30T09:23:43.502Z,18.56
2024-03-30T09:24:43.474Z,18.65
2024-03-30T09:25:43.719Z,18.65
2024-03-30T09:26:43.420Z,18.81
2024-03-30T09:27:43.391Z,18.81
2024-03-30T09:28:44.416Z,18.77
2024-03-30T09:29:43.342Z,18.78
2024-03-30T09:30:43.599Z,18.90
2024-03-30T09:31:43.275Z,18.86
2024-03-30T09:32:43.251Z,18.98
2024-03-30T09:33:43.221Z,19.09
2024-03-30T09:34:49.426Z,19.04
2024-03-30T09:35:43.176Z,19.19
2024-03-30T09:36:43.135Z,19.22
2024-03-30T09:37:43.112Z,19.14
2024-03-30T09:38:43.083Z,18.99
2024-03-30T09:39:43.339Z,18.95
2024-03-30T09:40:43.024Z,18.84
2024-03-30T09:41:42.992Z,18.74
2024-03-30T09:42:42.977Z,18.62
2024-03-30T09:43:42.942Z,18.44
2024-03-30T09:44:42.978Z,18.28
2024-03-30T09:45:42.893Z,18.41
2024-03-30T09:46:42.854Z,18.38
2024-03-30T09:47:42.865Z,18.38
2024-03-30T09:48:42.802Z,18.49
2024-03-30T09:49:42.798Z,18.56
2024-03-30T09:50:42.739Z,18.66
2024-03-30T09:51:42.715Z,18.80
2024-03-30T09:52:42.684Z,18.86
2024-03-30T09:53:42.657Z,19.19
2024-03-30T09:54:42.670Z,19.48
2024-03-30T09:55:42.606Z,19.55
2024-03-30T09:56:42.585Z,19.74
2024-03-30T09:57:43.465Z,19.84
2024-03-30T09:58:42.525Z,20.00
2024-03-30T09:59:42.768Z,20.14
2024-03-30T10:00:42.457Z,20.11
2024-03-30T10:01:42.492Z,20.04
2024-03-30T10:02:42.411Z,19.95
2024-03-30T10:03:42.410Z,19.91
2024-03-30T10:04:42.359Z,19.91
2024-03-30T10:05:42.323Z,19.84
2024-03-30T10:06:42.298Z,19.99
2024-03-30T10:07:42.271Z,19.95
2024-03-30T10:08:42.523Z,19.99
2024-03-30T10:09:42.223Z,19.88
2024-03-30T10:10:42.216Z,19.92
2024-03-30T10:11:42.182Z,19.92
2024-03-30T10:12:42.130Z,20.14
2024-03-30T10:13:42.260Z,20.25
2024-03-30T10:14:42.116Z,20.40
2024-03-30T10:15:42.052Z,20.56
2024-03-30T10:16:42.033Z,20.58
2024-03-30T10:17:42.006Z,20.81
2024-03-30T10:18:41.995Z,20.80
2024-03-30T10:19:41.947Z,20.96
2024-03-30T10:20:41.916Z,21.14
2024-03-30T10:21:41.891Z,21.02
2024-03-30T10:22:41.891Z,20.99
2024-03-30T10:23:41.849Z,20.87
2024-03-30T10:24:42.116Z,20.93
2024-03-30T10:25:41.791Z,20.75
2024-03-30T10:26:41.759Z,20.69
2024-03-30T10:27:41.733Z,20.84
2024-03-30T10:28:41.733Z,20.90
2024-03-30T10:29:41.679Z,21.02
2024-03-30T10:30:41.648Z,21.22
2024-03-30T10:31:41.628Z,21.21
2024-03-30T10:32:41.601Z,21.24
2024-03-30T10:33:41.603Z,21.36
2024-03-30T10:34:41.549Z,21.35
2024-03-30T10:35:41.538Z,21.46
2024-03-30T10:36:41.493Z,21.58
2024-03-30T10:37:41.466Z,21.57
2024-03-30T10:38:41.464Z,21.48
2024-03-30T10:39:41.492Z,21.42
2024-03-30T10:40:41.388Z,21.32
2024-03-30T10:41:41.359Z,21.24
2024-03-30T10:42:41.338Z,21.18
2024-03-30T10:43:41.334Z,21.22
2024-03-30T10:44:41.280Z,21.37
2024-03-30T10:45:41.256Z,21.46
2024-03-30T10:46:41.229Z,21.64
2024-03-30T10:47:41.248Z,21.61
2024-03-30T10:48:41.460Z,21.72
2024-03-30T10:49:41.216Z,21.75
2024-03-30T10:50:41.122Z,21.62
2024-03-30T10:51:41.225Z,21.50
2024-03-30T10:52:41.088Z,21.50
2024-03-30T10:53:41.070Z,21.57
2024-03-30T10:54:41.017Z,21.54
2024-03-30T10:55:41.012Z,21.57
2024-03-30T10:56:40.990Z,21.77
2024-03-30T10:57:40.939Z,21.80
2024-03-30T10:58:40.940Z,21.76
2024-03-30T10:59:40.896Z,21.88
2024-03-30T11:00:40.860Z,21.88
2024-03-30T11:01:40.839Z,21.99
2024-03-30T11:02:40.833Z,22.06
2024-03-30T11:03:40.789Z,22.18
2024-03-30T11:04:40.781Z,22.30
2024-03-30T11:05:40.755Z,22.29
2024-03-30T11:06:40.702Z,22.38
2024-03-30T11:07:40.958Z,22.44
2024-03-30T11:08:40.650Z,22.50
2024-03-30T11:09:40.648Z,22.59
2024-03-30T11:10:40.602Z,22.55
2024-03-30T11:11:40.582Z,22.59
2024-03-30T11:12:40.831Z,22.65
2024-03-30T11:13:40.587Z,22.69
2024-03-30T11:14:40.498Z,22.69
2024-03-30T11:15:40.478Z,22.75
2024-03-30T11:16:40.452Z,22.57
2024-03-30T11:17:40.692Z,22.47
2024-03-30T11:18:40.397Z,22.38
2024-03-30T11:19:40.375Z,22.48
2024-03-30T11:20:40.342Z,22.54
2024-03-30T11:21:40.316Z,22.51
2024-03-30T11:22:40.568Z,22.65
2024-03-30T11:23:40.267Z,22.70
2024-03-30T11:24:40.238Z,22.80
2024-03-30T11:25:40.230Z,22.83
2024-03-30T11:26:40.190Z,22.87
2024-03-30T11:27:40.201Z,22.98
2024-03-30T11:28:40.136Z,23.06
2024-03-30T11:29:40.112Z,23.02
2024-03-30T11:30:49.508Z,23.06
2024-03-30T11:31:40.064Z,23.13
2024-03-30T11:32:40.315Z,23.08
2024-03-30T11:33:40.023Z,23.03
2024-03-30T11:34:40.012Z,23.06
2024-03-30T11:35:39.971Z,23.12
2024-03-30T11:36:39.936Z,23.08
2024-03-30T11:37:39.935Z,22.98
2024-03-30T11:38:41.661Z,22.94
2024-03-30T11:39:39.862Z,22.94
2024-03-30T11:40:39.864Z,22.99
2024-03-30T11:41:39.810Z,22.93
2024-03-30T11:42:40.067Z,23.00
2024-03-30T11:43:39.765Z,23.02
2024-03-30T11:44:39.735Z,23.08
2024-03-30T11:45:39.716Z,23.27
2024-03-30T11:46:39.686Z,23.28
2024-03-30T11:47:39.940Z,23.37
2024-03-30T11:48:39.639Z,23.39
2024-03-30T11:49:39.627Z,23.47
2024-03-30T11:50:39.588Z,23.58
2024-03-30T11:51:39.578Z,23.56
2024-03-30T11:52:39.808Z,23.61
2024-03-30T11:53:39.526Z,23.56
2024-03-30T11:54:39.497Z,23.62
2024-03-30T11:55:39.462Z,23.59
2024-03-30T11:56:39.436Z,23.66
2024-03-30T11:57:39.958Z,23.56
2024-03-30T11:58:39.400Z,23.58
2024-03-30T11:59:39.366Z,23.62
2024-03-30T12:00:39.335Z,23.69
2024-03-30T12:01:39.597Z,23.71
2024-03-30T12:02:39.286Z,23.73
2024-03-30T12:03:39.302Z,23.80
2024-03-30T12:04:39.257Z,23.80
2024-03-30T12:05:39.212Z,23.80
2024-03-30T12:06:39.478Z,23.87
2024-03-30T12:07:39.173Z,23.92
2024-03-30T12:08:39.139Z,23.98
2024-03-30T12:09:39.115Z,23.95
2024-03-30T12:10:39.106Z,23.92
2024-03-30T12:11:39.377Z,23.95
2024-03-30T12:12:39.074Z,23.91
2024-03-30T12:13:39.017Z,23.98
2024-03-30T12:14:39.548Z,24.01
2024-03-30T12:15:38.984Z,24.03
2024-03-30T12:16:39.236Z,24.17
2024-03-30T12:17:38.986Z,24.20
2024-03-30T12:18:38.911Z,23.98
2024-03-30T12:19:38.926Z,23.91
2024-03-30T12:20:39.120Z,23.92
2024-03-30T12:21:38.826Z,23.93
2024-03-30T12:22:38.796Z,23.99
2024-03-30T12:23:38.772Z,24.05
2024-03-30T12:24:38.768Z,24.16
2024-03-30T12:25:39.028Z,24.20
2024-03-30T12:26:38.715Z,24.30
2024-03-30T12:27:38.676Z,24.39
2024-03-30T12:28:38.682Z,24.47
2024-03-30T12:29:40.716Z,24.48
2024-03-30T12:30:38.631Z,24.51
2024-03-30T12:31:38.578Z,24.48
2024-03-30T12:32:38.597Z,24.47
2024-03-30T12:33:38.528Z,24.54
2024-03-30T12:34:38.508Z,24.54
2024-03-30T12:35:38.767Z,24.53
2024-03-30T12:36:38.483Z,24.57
2024-03-30T12:37:38.461Z,24.58
2024-03-30T12:38:38.421Z,24.55
2024-03-30T12:39:38.380Z,24.60
2024-03-30T12:40:38.639Z,24.66
2024-03-30T12:41:38.344Z,24.70
2024-03-30T12:42:38.319Z,24.74
2024-03-30T12:43:38.280Z,24.73
2024-03-30T12:44:38.267Z,24.78
2024-03-30T12:45:38.518Z,24.74
2024-03-30T12:46:38.221Z,24.69
2024-03-30T12:47:38.194Z,24.55
2024-03-30T12:48:38.157Z,24.58
2024-03-30T12:49:38.137Z,24.74
2024-03-30T12:50:38.112Z,24.74
2024-03-30T12:51:38.995Z,24.77
2024-03-30T12:52:38.088Z,24.85
2024-03-30T12:53:38.042Z,24.80
2024-03-30T12:54:38.031Z,24.91
2024-03-30T12:55:38.290Z,24.74
2024-03-30T12:56:37.990Z,24.76
2024-03-30T12:57:37.957Z,24.77
2024-03-30T12:58:37.918Z,24.68
2024-03-30T12:59:37.899Z,24.73
2024-03-30T13:00:38.154Z,24.77